createdAt,value
2022-11-07T00:29:29.066Z,0
2022-11-07T00:30:09.451Z,0
2022-11-07T00:30:50.067Z,0
2022-11-07T00:36:13.981Z,0
2022-11-07T00:36:54.450Z,0
2022-11-07T00:37:34.970Z,0
2022-11-07T00:38:15.451Z,0
2022-11-07T00:38:55.938Z,0
2022-11-07T00:39:36.402Z,0
2022-11-07T00:40:16.936Z,0
2022-11-07T00:40:57.351Z,0
2022-11-07T00:41:37.890Z,0
2022-11-07T00:42:18.373Z,0
2022-11-07T00:49:43.958Z,0
2022-11-07T00:50:24.507Z,0
2022-11-07T00:51:05.005Z,0
2022-11-07T00:51:45.641Z,0
2022-11-07T00:52:27.013Z,0
2022-11-07T00:53:47.993Z,0
2022-11-07T00:54:28.485Z,0
2022-11-07T01:01:13.924Z,0
2022-11-07T01:01:54.595Z,0
2022-11-07T01:02:35.056Z,0
2022-11-07T01:03:15.755Z,0
2022-11-07T01:03:55.923Z,0
2022-11-07T01:04:36.437Z,0
2022-11-07T01:05:16.924Z,0
2022-11-07T01:05:57.540Z,0
2022-11-07T01:06:37.898Z,0
2022-11-07T01:07:18.422Z,0
2022-11-07T01:14:43.937Z,0
2022-11-07T01:15:24.522Z,0
2022-11-07T01:16:45.800Z,0
2022-11-07T01:17:26.090Z,0
2022-11-07T01:18:06.643Z,0
2022-11-07T01:18:47.133Z,0
2022-11-07T01:19:27.640Z,0
2022-11-07T01:20:08.126Z,0
2022-11-07T01:20:48.654Z,0
2022-11-07T01:26:54.023Z,0
2022-11-07T01:27:34.502Z,0
2022-11-07T01:28:15.043Z,0
2022-11-07T01:28:55.543Z,0
2022-11-07T01:29:36.090Z,0
2022-11-07T01:30:16.621Z,0
2022-11-07T01:30:57.153Z,0
2022-11-07T01:31:37.734Z,0
2022-11-07T01:32:18.105Z,0
2022-11-07T01:39:43.793Z,0
2022-11-07T01:40:24.342Z,0
2022-11-07T01:41:04.834Z,0
2022-11-07T01:41:45.294Z,0
2022-11-07T01:42:25.881Z,0
2022-11-07T01:43:06.374Z,0
2022-11-07T01:43:46.839Z,0
2022-11-07T01:44:27.322Z,0
2022-11-07T01:45:07.835Z,0
2022-11-07T01:45:48.291Z,0
2022-11-07T01:53:14.133Z,0
2022-11-07T01:53:54.331Z,0
2022-11-07T01:54:34.830Z,0
2022-11-07T01:55:15.305Z,0
2022-11-07T01:55:55.815Z,0
2022-11-07T01:56:36.341Z,0
2022-11-07T01:57:16.890Z,0
2022-11-07T01:57:57.404Z,0
2022-11-07T01:58:38.626Z,0
2022-11-07T02:05:23.814Z,0
2022-11-07T02:06:04.309Z,0
2022-11-07T02:06:44.832Z,0
2022-11-07T02:09:17.781Z,0
2022-11-07T02:09:58.269Z,0
2022-11-07T02:10:38.701Z,0
2022-11-07T02:16:02.571Z,0
2022-11-07T02:16:43.035Z,0
2022-11-07T02:17:23.558Z,0
2022-11-07T02:18:04.038Z,0
2022-11-07T02:18:44.469Z,0
2022-11-07T02:19:24.950Z,0
2022-11-07T02:20:05.425Z,0
2022-11-07T02:20:45.922Z,0
2022-11-07T02:21:26.368Z,0
2022-11-07T02:22:06.827Z,0
2022-11-07T02:22:47.311Z,0
2022-11-07T02:30:12.599Z,0
2022-11-07T02:30:53.052Z,0
2022-11-07T02:31:33.512Z,0
2022-11-07T02:32:13.977Z,0
2022-11-07T02:32:54.415Z,0
2022-11-07T02:33:34.922Z,0
2022-11-07T02:34:15.358Z,0
2022-11-07T02:34:55.850Z,0
2022-11-07T02:35:36.334Z,0
2022-11-07T02:36:16.825Z,0
2022-11-07T02:36:57.287Z,0
2022-11-07T02:44:22.520Z,0
2022-11-07T02:45:02.989Z,0
2022-11-07T02:45:43.437Z,0
2022-11-07T02:46:23.953Z,0
2022-11-07T02:50:04.022Z,0
2022-11-07T02:50:44.426Z,0
2022-11-07T02:51:24.874Z,0
2022-11-07T02:56:48.613Z,0
2022-11-07T02:57:29.080Z,0
2022-11-07T02:58:09.554Z,0
2022-11-07T02:58:50.038Z,0
2022-11-07T02:59:30.535Z,0
2022-11-07T03:00:11.047Z,0
2022-11-07T03:00:51.471Z,0
2022-11-07T03:01:32.045Z,0
2022-11-07T03:02:12.614Z,0
2022-11-07T03:02:53.039Z,0
2022-11-07T03:03:33.386Z,0
2022-11-07T03:10:58.654Z,0
2022-11-07T03:11:39.123Z,0
2022-11-07T03:12:19.643Z,0
2022-11-07T03:13:00.190Z,0
2022-11-07T03:13:40.617Z,0
2022-11-07T03:14:21.235Z,0
2022-11-07T03:15:01.714Z,0
2022-11-07T03:15:42.145Z,0
2022-11-07T03:16:22.623Z,0
2022-11-07T03:17:03.184Z,0
2022-11-07T03:17:43.673Z,0
2022-11-07T03:27:01.624Z,0
2022-11-07T03:27:42.087Z,0
2022-11-07T03:28:22.559Z,0
2022-11-07T03:33:46.308Z,0
2022-11-07T03:34:26.773Z,0
2022-11-07T03:35:07.275Z,0
2022-11-07T03:35:47.741Z,0
2022-11-07T03:36:28.225Z,0
2022-11-07T03:37:08.693Z,0
2022-11-07T03:37:49.144Z,0
2022-11-07T03:38:29.630Z,0
2022-11-07T03:39:10.129Z,0
2022-11-07T03:39:50.621Z,0
2022-11-07T03:40:31.125Z,0
2022-11-07T03:45:26.000Z,0
2022-11-07T03:46:06.991Z,0
2022-11-07T03:46:48.080Z,0
2022-11-07T03:50:50.974Z,0
2022-11-07T03:51:31.464Z,0
2022-11-07T03:52:11.928Z,0
2022-11-07T03:52:52.380Z,0
2022-11-07T03:53:32.893Z,0
2022-11-07T03:54:13.310Z,0
2022-11-07T03:54:53.787Z,0
2022-11-07T03:55:34.282Z,0
2022-11-07T03:56:14.759Z,0
2022-11-07T03:56:55.215Z,0
2022-11-07T03:57:35.720Z,0
2022-11-07T04:05:00.936Z,0
2022-11-07T04:05:41.402Z,0
2022-11-07T04:06:21.874Z,0
2022-11-07T04:07:02.381Z,0
2022-11-07T04:07:42.831Z,0
2022-11-07T04:08:23.292Z,0
2022-11-07T04:09:03.758Z,0
2022-11-07T04:09:44.246Z,0
2022-11-07T04:10:24.695Z,0
2022-11-07T04:11:05.207Z,0
2022-11-07T04:11:45.648Z,0
2022-11-07T04:19:10.968Z,0
2022-11-07T04:19:51.479Z,0
2022-11-07T04:20:31.977Z,0
2022-11-07T04:21:12.468Z,0
2022-11-07T04:21:52.928Z,0
2022-11-07T04:22:33.413Z,0
2022-11-07T04:23:14.169Z,0
2022-11-07T04:23:54.406Z,0
2022-11-07T04:24:34.885Z,0
2022-11-07T04:25:15.342Z,0
2022-11-07T04:33:21.136Z,0
2022-11-07T04:34:01.657Z,0
2022-11-07T04:34:42.137Z,0
2022-11-07T04:35:22.682Z,0
2022-11-07T04:36:03.105Z,0
2022-11-07T04:36:43.527Z,0
2022-11-07T04:37:23.991Z,0
2022-11-07T04:38:04.554Z,0
2022-11-07T04:38:44.998Z,0
2022-11-07T04:39:25.499Z,0
2022-11-07T04:46:50.824Z,0
2022-11-07T04:47:31.283Z,0
2022-11-07T04:48:11.768Z,0
2022-11-07T04:48:52.221Z,0
2022-11-07T04:49:32.702Z,0
2022-11-07T04:50:13.247Z,0
2022-11-07T04:50:53.857Z,0
2022-11-07T04:52:14.815Z,0
2022-11-07T04:52:55.300Z,0
2022-11-07T05:01:01.106Z,0
2022-11-07T05:01:41.649Z,0
2022-11-07T05:02:22.228Z,0
2022-11-07T05:03:02.698Z,0
2022-11-07T05:03:43.060Z,0
2022-11-07T05:04:23.578Z,0
2022-11-07T05:05:03.987Z,0
2022-11-07T05:05:44.444Z,0
2022-11-07T05:06:24.917Z,0
2022-11-07T05:07:05.397Z,0
2022-11-07T05:14:30.695Z,0
2022-11-07T05:15:11.251Z,0
2022-11-07T05:15:51.740Z,0
2022-11-07T05:16:32.205Z,0
2022-11-07T05:17:12.695Z,0
2022-11-07T05:17:53.195Z,0
2022-11-07T05:18:33.656Z,0
2022-11-07T05:19:14.190Z,0
2022-11-07T05:19:54.743Z,0
2022-11-07T05:20:35.265Z,0
2022-11-07T05:21:15.739Z,0
2022-11-07T05:28:00.647Z,0
2022-11-07T05:28:41.138Z,0
2022-11-07T05:29:21.586Z,0
2022-11-07T05:30:02.102Z,0
2022-11-07T05:30:42.629Z,0
2022-11-07T05:31:23.157Z,0
2022-11-07T05:32:03.644Z,0
2022-11-07T05:32:44.144Z,0
2022-11-07T05:33:24.665Z,0
2022-11-07T05:34:05.107Z,0
2022-11-07T05:34:45.579Z,0
2022-11-07T05:42:10.945Z,0
2022-11-07T05:42:51.471Z,0
2022-11-07T05:43:31.954Z,0
2022-11-07T05:44:12.415Z,0
2022-11-07T05:44:52.899Z,0
2022-11-07T05:45:33.396Z,0
2022-11-07T05:46:13.915Z,0
2022-11-07T05:49:52.915Z,0
2022-11-07T05:50:33.360Z,0
2022-11-07T05:51:13.819Z,0
2022-11-07T06:31:38.900Z,0
2022-11-07T06:32:19.543Z,0
2022-11-07T06:33:01.386Z,0
2022-11-07T06:38:42.261Z,0
2022-11-07T06:39:22.743Z,0
2022-11-07T06:40:03.254Z,0
2022-11-07T06:45:27.164Z,0
2022-11-07T06:46:07.674Z,0
2022-11-07T06:46:48.592Z,0
2022-11-07T06:47:29.054Z,0
2022-11-07T06:48:09.506Z,0
2022-11-07T06:48:51.529Z,0
2022-11-07T06:51:37.456Z,0
2022-11-07T06:52:17.656Z,0
2022-11-07T06:52:58.115Z,0
2022-11-07T06:53:38.588Z,0
2022-11-07T06:54:19.129Z,0
2022-11-07T06:54:59.643Z,0
2022-11-07T06:55:41.608Z,0
2022-11-07T07:03:07.374Z,0
2022-11-07T07:03:47.831Z,0
2022-11-07T07:04:28.918Z,0
2022-11-07T07:05:09.474Z,0
2022-11-07T07:05:50.599Z,0
2022-11-07T07:06:31.153Z,0
2022-11-07T07:07:11.608Z,0
2022-11-07T07:11:48.243Z,0
2022-11-07T07:12:28.704Z,0
2022-11-07T07:13:09.207Z,0
2022-11-07T07:16:32.951Z,0
2022-11-07T07:17:13.797Z,0
2022-11-07T07:18:35.108Z,0
2022-11-07T07:19:15.549Z,0
2022-11-07T07:26:46.598Z,5
2022-11-07T07:27:27.023Z,5
2022-11-07T07:28:07.539Z,5
2022-11-07T07:33:22.916Z,5
2022-11-07T07:34:04.450Z,5
2022-11-07T07:34:44.914Z,0
2022-11-07T07:36:46.643Z,0
2022-11-07T07:37:27.225Z,0
2022-11-07T07:38:07.756Z,0
2022-11-07T07:38:48.315Z,5
2022-11-07T07:39:28.865Z,5
2022-11-07T07:40:10.713Z,5
2022-11-07T07:40:51.766Z,5
2022-11-07T07:45:11.383Z,5
2022-11-07T07:45:51.882Z,5
2022-11-07T07:46:32.308Z,0
2022-11-07T07:47:12.952Z,0
2022-11-07T07:47:53.429Z,5
2022-11-07T07:48:34.059Z,5
2022-11-07T07:49:14.461Z,5
2022-11-07T07:49:55.020Z,0
2022-11-07T07:50:35.552Z,0
2022-11-07T07:51:16.101Z,0
2022-11-07T07:51:56.702Z,0
2022-11-07T07:52:37.235Z,0
2022-11-07T08:00:34.736Z,5
2022-11-07T08:04:13.693Z,5
2022-11-07T08:04:54.699Z,5
2022-11-07T08:05:35.378Z,5
2022-11-07T08:06:27.689Z,5
2022-11-07T08:07:08.238Z,5
2022-11-07T08:12:24.521Z,5
2022-11-07T08:13:07.212Z,5
2022-11-07T08:13:47.691Z,5
2022-11-07T08:15:08.756Z,5
2022-11-07T08:15:49.307Z,5
2022-11-07T08:16:29.860Z,5
2022-11-07T08:17:10.529Z,5
2022-11-07T08:17:51.128Z,5
2022-11-07T08:18:31.699Z,5
2022-11-07T08:19:12.340Z,5
2022-11-07T08:25:58.858Z,5
2022-11-07T08:26:40.245Z,5
2022-11-07T08:27:20.345Z,5
2022-11-07T08:28:00.835Z,5
2022-11-07T08:28:41.390Z,5
2022-11-07T08:29:21.878Z,5
2022-11-07T08:30:02.506Z,5
2022-11-07T08:30:43.006Z,5
2022-11-07T08:31:23.577Z,5
2022-11-07T08:36:50.955Z,5
2022-11-07T08:37:31.454Z,5
2022-11-07T08:40:58.917Z,5
2022-11-07T08:41:39.428Z,5
2022-11-07T08:42:19.914Z,5
2022-11-07T08:43:00.412Z,5
2022-11-07T08:43:40.933Z,5
2022-11-07T08:44:21.434Z,5
2022-11-07T08:45:01.950Z,5
2022-11-07T08:45:42.453Z,5
2022-11-07T08:53:09.174Z,10
2022-11-07T08:53:49.650Z,10
2022-11-07T08:54:30.232Z,10
2022-11-07T08:55:10.706Z,10
2022-11-07T08:55:51.221Z,10
2022-11-07T08:56:31.716Z,10
2022-11-07T08:57:12.236Z,10
2022-11-07T08:57:52.808Z,10
2022-11-07T08:59:13.760Z,10
2022-11-07T09:05:19.113Z,10
2022-11-07T09:05:59.580Z,10
2022-11-07T09:06:40.217Z,10
2022-11-07T09:07:20.668Z,10
2022-11-07T09:08:01.247Z,10
2022-11-07T09:08:41.731Z,10
2022-11-07T09:09:22.232Z,10
2022-11-07T09:10:02.746Z,10
2022-11-07T09:10:43.371Z,10
2022-11-07T09:18:09.084Z,10
2022-11-07T09:18:49.772Z,10
2022-11-07T09:19:30.323Z,10
2022-11-07T09:20:10.810Z,10
2022-11-07T09:20:51.383Z,10
2022-11-07T09:21:31.846Z,10
2022-11-07T09:22:12.596Z,10
2022-11-07T09:22:52.835Z,10
2022-11-07T09:23:33.451Z,10
2022-11-07T09:30:18.876Z,15
2022-11-07T09:30:59.388Z,15
2022-11-07T09:31:39.873Z,15
2022-11-07T09:32:43.101Z,15
2022-11-07T09:33:01.724Z,15
2022-11-07T09:36:49.589Z,10
2022-11-07T09:37:35.412Z,10
2022-11-07T09:38:15.235Z,10
2022-11-07T09:38:55.733Z,10
2022-11-07T09:41:37.876Z,10
2022-11-07T09:42:18.515Z,10
2022-11-07T09:42:59.102Z,10
2022-11-07T09:43:39.522Z,10
2022-11-07T09:44:20.017Z,10
2022-11-07T09:45:41.046Z,10
2022-11-07T09:46:21.525Z,10
2022-11-07T09:47:02.157Z,10
2022-11-07T09:47:42.714Z,10
2022-11-07T09:49:48.976Z,10
2022-11-07T09:51:25.802Z,5
2022-11-07T09:54:50.585Z,10
2022-11-07T09:55:30.730Z,10
2022-11-07T09:56:21.830Z,10
2022-11-07T09:57:02.339Z,10
2022-11-07T10:01:40.974Z,10
2022-11-07T10:02:21.261Z,10
2022-11-07T10:03:01.971Z,10
2022-11-07T10:04:27.632Z,10
2022-11-07T10:07:42.031Z,15
2022-11-07T10:08:25.270Z,15
2022-11-07T10:09:05.822Z,15
2022-11-07T10:09:46.288Z,15
2022-11-07T10:10:26.827Z,15
2022-11-07T10:11:07.334Z,15
2022-11-07T10:11:47.879Z,15
2022-11-07T10:12:28.457Z,15
2022-11-07T10:13:09.952Z,15
2022-11-07T10:13:50.521Z,15
2022-11-07T10:14:31.002Z,15
2022-11-07T10:17:56.958Z,15
2022-11-07T10:24:23.104Z,20
2022-11-07T10:25:20.081Z,20
2022-11-07T10:26:09.251Z,20
2022-11-07T10:36:47.546Z,30
2022-11-07T10:37:30.383Z,30
2022-11-07T10:50:14.303Z,20
2022-11-07T10:50:54.777Z,20
2022-11-07T10:51:37.488Z,25
2022-11-07T10:57:55.344Z,25
2022-11-07T10:58:37.372Z,25
2022-11-07T10:59:18.394Z,25
2022-11-07T10:59:59.390Z,25
2022-11-07T11:00:40.562Z,30
2022-11-07T11:03:32.325Z,25
2022-11-07T11:04:09.036Z,25
2022-11-07T11:04:51.042Z,20
2022-11-07T11:08:16.644Z,20
2022-11-07T11:08:58.235Z,20
2022-11-07T11:16:16.067Z,15
2022-11-07T11:16:56.673Z,15
2022-11-07T11:17:37.230Z,15
2022-11-07T11:21:03.559Z,20
2022-11-07T11:21:44.383Z,20
2022-11-07T11:22:24.856Z,20
2022-11-07T11:29:10.434Z,40
2022-11-07T11:29:51.929Z,40
2022-11-07T11:30:32.673Z,30
2022-11-07T11:31:13.306Z,35
2022-11-07T11:31:53.887Z,35
2022-11-07T11:32:34.464Z,35
2022-11-07T11:33:15.405Z,35
2022-11-07T11:38:00.602Z,40
2022-11-07T11:38:41.194Z,40
2022-11-07T11:39:21.761Z,35
2022-11-07T11:40:02.324Z,35
2022-11-07T11:40:43.698Z,35
2022-11-07T11:41:24.237Z,30
2022-11-07T11:42:04.778Z,35
2022-11-07T11:42:45.313Z,35
2022-11-07T11:48:50.881Z,35
2022-11-07T11:49:31.698Z,35
2022-11-07T11:50:12.280Z,40
2022-11-07T11:50:52.848Z,35
2022-11-07T11:51:34.104Z,40
2022-11-07T11:52:13.905Z,30
2022-11-07T11:52:54.424Z,35
2022-11-07T12:32:22.071Z,20
2022-11-07T12:35:40.356Z,15
2022-11-07T12:36:20.898Z,15
2022-11-07T12:37:01.442Z,15
2022-11-07T12:42:00.253Z,15
2022-11-07T12:42:40.627Z,15
2022-11-07T12:43:21.117Z,15
2022-11-07T12:44:42.238Z,15
2022-11-07T12:45:22.812Z,15
2022-11-07T12:46:03.304Z,10
2022-11-07T12:46:43.977Z,15
2022-11-07T12:47:24.575Z,15
2022-11-07T12:49:53.616Z,15
2022-11-07T12:50:39.249Z,15
2022-11-07T12:51:19.849Z,15
2022-11-07T12:52:00.334Z,15
2022-11-07T12:52:41.091Z,15
2022-11-07T12:56:07.740Z,15
2022-11-07T12:58:47.776Z,20
2022-11-07T12:59:28.747Z,20
2022-11-07T13:00:12.668Z,20
2022-11-07T13:00:53.904Z,20
2022-11-07T13:01:34.696Z,25
2022-11-07T13:02:15.699Z,25
2022-11-07T13:02:56.322Z,25
2022-11-07T13:03:36.824Z,25
2022-11-07T13:04:17.305Z,25
2022-11-07T13:09:02.275Z,25
2022-11-07T13:09:42.943Z,25
2022-11-07T13:10:24.083Z,25
2022-11-07T13:11:04.244Z,25
2022-11-07T13:11:45.013Z,25
2022-11-07T13:12:25.650Z,25
2022-11-07T13:13:06.298Z,25
2022-11-07T13:13:46.751Z,25
2022-11-07T13:17:06.824Z,20
2022-11-07T13:20:14.685Z,20
2022-11-07T13:20:55.324Z,20
2022-11-07T13:21:35.833Z,20
2022-11-07T13:25:39.455Z,20
2022-11-07T13:26:45.570Z,15
2022-11-07T13:27:00.475Z,15
2022-11-07T13:27:41.160Z,15
2022-11-07T13:28:21.866Z,15
2022-11-07T13:29:43.057Z,15
2022-11-07T13:30:23.601Z,15
2022-11-07T13:31:07.734Z,15
2022-11-07T13:37:49.495Z,15
2022-11-07T13:38:30.252Z,15
2022-11-07T13:39:10.721Z,15
2022-11-07T13:39:51.267Z,15
2022-11-07T13:40:31.780Z,15
2022-11-07T13:41:12.292Z,15
2022-11-07T13:41:52.827Z,15
2022-11-07T13:42:33.617Z,15
2022-11-07T13:49:59.490Z,15
2022-11-07T13:50:39.999Z,15
2022-11-07T13:51:20.515Z,15
2022-11-07T13:52:01.123Z,15
2022-11-07T13:57:42.469Z,15
2022-11-07T13:58:23.284Z,10
2022-11-07T13:59:03.850Z,10
2022-11-07T14:01:48.114Z,10
2022-11-07T14:02:28.644Z,10
2022-11-07T14:03:09.042Z,10
2022-11-07T14:03:56.791Z,10
2022-11-07T14:04:55.610Z,10
2022-11-07T14:05:20.657Z,10
2022-11-07T14:06:01.254Z,10
2022-11-07T14:14:01.260Z,10
2022-11-07T14:14:42.235Z,10
2022-11-07T14:15:22.824Z,10
2022-11-07T14:16:04.629Z,10
2022-11-07T14:16:44.846Z,10
2022-11-07T14:17:26.207Z,10
2022-11-07T14:18:06.858Z,10
2022-11-07T14:20:56.051Z,10
2022-11-07T14:21:36.743Z,10
2022-11-07T14:26:22.552Z,10
2022-11-07T14:27:04.660Z,10
2022-11-07T14:27:45.542Z,10
2022-11-07T14:28:26.320Z,10
2022-11-07T14:29:06.848Z,10
2022-11-07T14:33:52.132Z,10
2022-11-07T14:34:32.944Z,10
2022-11-07T14:35:13.539Z,10
2022-11-07T14:42:42.382Z,15
2022-11-07T14:43:22.943Z,25
2022-11-07T14:44:03.577Z,25
2022-11-07T14:44:59.268Z,35
2022-11-07T14:45:47.101Z,40
2022-11-07T14:46:12.205Z,40
2022-11-07T14:46:45.534Z,40
2022-11-07T14:47:26.375Z,40
2022-11-07T14:48:06.938Z,40
2022-11-07T14:54:52.058Z,45
2022-11-07T14:55:32.634Z,50
2022-11-07T14:56:13.153Z,50
2022-11-07T14:56:54.015Z,45
2022-11-07T14:57:34.771Z,50
2022-11-07T14:58:16.651Z,45
2022-11-07T15:01:02.628Z,35
2022-11-07T15:01:43.233Z,35
2022-11-07T15:02:23.841Z,35
2022-11-07T15:03:04.128Z,35
2022-11-07T15:03:44.651Z,35
2022-11-07T15:04:25.248Z,20
2022-11-07T15:05:10.866Z,15
2022-11-07T15:05:46.410Z,10
2022-11-07T15:06:26.829Z,10
2022-11-07T15:13:12.160Z,5
2022-11-07T15:13:52.687Z,5
2022-11-07T15:14:33.142Z,5
2022-11-07T15:15:13.609Z,5
2022-11-07T15:15:54.144Z,5
2022-11-07T15:16:34.600Z,5
2022-11-07T15:17:15.079Z,5
2022-11-07T15:17:55.588Z,5
2022-11-07T15:18:36.033Z,5
2022-11-07T15:19:16.507Z,5
2022-11-07T15:26:42.486Z,0
2022-11-07T15:27:23.648Z,0
2022-11-07T15:28:04.157Z,0
2022-11-07T15:28:44.628Z,0
2022-11-07T15:29:25.136Z,0
2022-11-07T15:30:05.635Z,0
2022-11-07T15:30:46.186Z,0
2022-11-07T15:31:26.866Z,0
2022-11-07T15:38:52.347Z,5
2022-11-07T15:39:32.843Z,5
2022-11-07T15:40:13.340Z,5
2022-11-07T15:40:53.888Z,5
2022-11-07T15:41:34.434Z,5
2022-11-07T15:42:14.935Z,5
2022-11-07T15:42:55.429Z,0
2022-11-07T15:43:35.984Z,0
2022-11-07T15:44:16.762Z,0
2022-11-07T15:51:01.906Z,0
2022-11-07T15:51:42.405Z,0
2022-11-07T15:52:22.862Z,0
2022-11-07T15:53:03.366Z,0
2022-11-07T15:53:43.840Z,0
2022-11-07T15:54:24.405Z,0
2022-11-07T15:55:05.660Z,0
2022-11-07T15:55:46.208Z,0
2022-11-07T15:56:26.669Z,0
2022-11-07T16:03:52.423Z,0
2022-11-07T16:04:36.610Z,0
2022-11-07T16:05:13.449Z,0
2022-11-07T16:05:54.063Z,0
2022-11-07T16:06:34.519Z,0
2022-11-07T16:07:15.007Z,0
2022-11-07T16:07:55.566Z,0
2022-11-07T16:08:36.097Z,0
2022-11-07T16:09:16.606Z,0
2022-11-07T16:16:42.344Z,0
2022-11-07T16:17:22.839Z,0
2022-11-07T16:18:03.368Z,0
2022-11-07T16:18:43.893Z,0
2022-11-07T16:19:24.400Z,0
2022-11-07T16:20:04.869Z,0
2022-11-07T16:20:45.366Z,0
2022-11-07T16:21:25.889Z,0
2022-11-07T16:22:06.373Z,0
2022-11-07T16:22:46.918Z,0
2022-11-07T16:30:12.337Z,0
2022-11-07T16:30:52.899Z,0
2022-11-07T16:31:33.355Z,0
2022-11-07T16:32:17.521Z,0
2022-11-07T16:32:54.343Z,0
2022-11-07T16:33:34.841Z,0
2022-11-07T16:34:15.318Z,0
2022-11-07T16:34:55.879Z,0
2022-11-07T16:35:36.313Z,0
2022-11-07T16:36:16.859Z,0
2022-11-07T16:43:42.396Z,0
2022-11-07T16:44:25.959Z,0
2022-11-07T16:45:03.456Z,0
2022-11-07T16:45:43.951Z,0
2022-11-07T16:46:24.423Z,0
2022-11-07T16:47:04.937Z,0
2022-11-07T16:47:45.408Z,0
2022-11-07T16:48:25.968Z,0
2022-11-07T16:49:06.432Z,0
2022-11-07T16:49:47.712Z,0
2022-11-07T16:56:32.204Z,0
2022-11-07T16:57:12.671Z,0
2022-11-07T16:57:53.174Z,0
2022-11-07T16:58:33.636Z,0
2022-11-07T16:59:14.149Z,0
2022-11-07T16:59:54.709Z,0
2022-11-07T17:00:35.135Z,0
2022-11-07T17:01:15.763Z,0
2022-11-07T17:01:56.308Z,0
2022-11-07T17:02:36.802Z,0
2022-11-07T17:09:21.902Z,0
2022-11-07T17:10:02.601Z,0
2022-11-07T17:10:43.109Z,0
2022-11-07T17:11:23.711Z,0
2022-11-07T17:12:04.218Z,0
2022-11-07T17:17:18.734Z,0
2022-11-07T17:22:16.047Z,0
2022-11-07T17:22:59.850Z,0
2022-11-07T17:23:40.326Z,0
2022-11-07T17:24:21.689Z,0
2022-11-07T17:30:26.388Z,0
2022-11-07T17:31:06.873Z,0
2022-11-07T17:31:47.336Z,0
2022-11-07T17:32:27.808Z,0
2022-11-07T17:33:08.229Z,0
2022-11-07T17:33:48.746Z,0
2022-11-07T17:34:29.321Z,0
2022-11-07T17:35:50.415Z,0
2022-11-07T17:36:36.511Z,0
2022-11-07T17:43:56.220Z,0
2022-11-07T17:44:36.668Z,0
2022-11-07T17:45:17.127Z,0
2022-11-07T17:45:57.691Z,0
2022-11-07T17:46:38.062Z,0
2022-11-07T17:47:19.196Z,0
2022-11-07T17:47:59.723Z,0
2022-11-07T17:48:43.448Z,0
2022-11-07T17:49:20.632Z,0
2022-11-07T18:34:17.679Z,0
2022-11-07T18:34:58.051Z,0
2022-11-07T18:35:38.614Z,0
2022-11-07T18:39:41.544Z,0
2022-11-07T18:40:21.966Z,0
2022-11-07T18:41:02.508Z,0
2022-11-07T18:41:42.920Z,0
2022-11-07T18:42:23.368Z,0
2022-11-07T18:43:03.876Z,0
2022-11-07T18:43:44.400Z,0
2022-11-07T18:44:24.852Z,0
2022-11-07T18:45:05.319Z,0
2022-11-07T18:45:45.852Z,0
2022-11-07T18:46:26.310Z,0
2022-11-07T18:53:51.814Z,0
2022-11-07T18:54:32.207Z,0
2022-11-07T18:55:12.663Z,0
2022-11-07T18:55:53.163Z,0
2022-11-07T18:56:33.621Z,0
2022-11-07T18:57:14.142Z,0
2022-11-07T18:58:35.094Z,0
2022-11-07T18:59:15.613Z,0
2022-11-07T18:59:56.077Z,0
2022-11-07T19:07:21.329Z,0
2022-11-07T19:08:01.790Z,0
2022-11-07T19:08:42.261Z,0
2022-11-07T19:09:22.754Z,0
2022-11-07T19:10:03.222Z,0
2022-11-07T19:10:43.688Z,0
2022-11-07T19:11:24.175Z,0
2022-11-07T19:12:04.682Z,0
2022-11-07T19:12:45.232Z,0
2022-11-07T19:13:25.655Z,0
2022-11-07T19:14:06.152Z,0
2022-11-07T19:21:31.548Z,0
2022-11-07T19:22:12.033Z,0
2022-11-07T19:22:52.482Z,0
2022-11-07T19:23:32.994Z,0
2022-11-07T19:24:13.489Z,0
2022-11-07T19:24:54.028Z,0
2022-11-07T19:25:34.465Z,0
2022-11-07T19:26:14.967Z,0
2022-11-07T19:26:55.454Z,0
2022-11-07T19:27:35.959Z,0
2022-11-07T19:35:41.666Z,0
2022-11-07T19:36:22.171Z,0
2022-11-07T19:37:02.615Z,0
2022-11-07T19:37:43.130Z,0
2022-11-07T19:38:23.660Z,0
2022-11-07T19:39:04.148Z,0
2022-11-07T19:39:44.605Z,0
2022-11-07T19:40:25.119Z,0
2022-11-07T19:41:46.011Z,0
2022-11-07T19:49:11.335Z,0
2022-11-07T19:49:51.892Z,0
2022-11-07T19:50:32.291Z,0
2022-11-07T19:51:15.620Z,0
2022-11-07T19:51:53.269Z,0
2022-11-07T19:52:33.714Z,0
2022-11-07T19:53:14.409Z,0
2022-11-07T19:53:54.622Z,0
2022-11-07T19:54:35.177Z,0
2022-11-07T19:55:15.653Z,0
2022-11-07T19:55:56.117Z,0
2022-11-07T20:03:21.637Z,0
2022-11-07T20:04:01.883Z,0
2022-11-07T20:04:42.366Z,0
2022-11-07T20:05:22.779Z,0
2022-11-07T20:06:03.295Z,0
2022-11-07T20:06:43.762Z,0
2022-11-07T20:07:24.325Z,0
2022-11-07T20:08:05.285Z,0
2022-11-07T20:10:18.101Z,0
2022-11-07T20:10:58.468Z,0
2022-11-07T20:11:39.006Z,0
2022-11-07T20:17:03.013Z,0
2022-11-07T20:17:43.529Z,0
2022-11-07T20:18:23.949Z,0
2022-11-07T20:19:04.541Z,0
2022-11-07T20:19:44.977Z,0
2022-11-07T20:20:25.473Z,0
2022-11-07T20:21:05.964Z,0
2022-11-07T20:21:46.472Z,0
2022-11-07T20:22:27.008Z,0
2022-11-07T20:23:07.561Z,0
2022-11-07T20:30:32.972Z,0
2022-11-07T20:31:13.448Z,0
2022-11-07T20:31:53.925Z,0
2022-11-07T20:32:34.525Z,0
2022-11-07T20:33:15.369Z,0
2022-11-07T20:33:55.557Z,0
2022-11-07T20:34:36.023Z,0
2022-11-07T20:35:16.530Z,0
2022-11-07T20:35:56.993Z,0
2022-11-07T20:36:37.482Z,0
2022-11-07T20:44:03.028Z,0
2022-11-07T20:44:43.509Z,0
2022-11-07T20:45:23.986Z,0
2022-11-07T20:46:04.468Z,0
2022-11-07T20:46:44.971Z,0
2022-11-07T20:47:25.433Z,0
2022-11-07T20:48:05.966Z,0
2022-11-07T20:48:46.429Z,0
2022-11-07T20:49:26.979Z,0
2022-11-07T20:50:07.516Z,0
2022-11-07T20:57:33.027Z,0
2022-11-07T20:58:13.528Z,0
2022-11-07T20:58:54.064Z,0
2022-11-07T20:59:34.578Z,0
2022-11-07T21:00:15.032Z,0
2022-11-07T21:00:55.544Z,0
2022-11-07T21:01:36.515Z,0
2022-11-07T21:02:16.516Z,0
2022-11-07T21:03:37.611Z,0
2022-11-07T21:11:03.043Z,0
2022-11-07T21:11:43.509Z,0
2022-11-07T21:12:23.932Z,0
2022-11-07T21:13:04.451Z,0
2022-11-07T21:13:51.348Z,0
2022-11-07T21:14:25.419Z,0
2022-11-07T21:15:05.959Z,0
2022-11-07T21:15:46.400Z,0
2022-11-07T21:16:26.917Z,0
2022-11-07T21:17:07.527Z,0
2022-11-07T21:24:33.025Z,0
2022-11-07T21:25:13.489Z,0
2022-11-07T21:25:53.926Z,0
2022-11-07T21:26:34.405Z,0
2022-11-07T21:27:14.880Z,0
2022-11-07T21:27:55.401Z,0
2022-11-07T21:28:35.993Z,0
2022-11-07T21:29:16.419Z,0
2022-11-07T21:29:56.886Z,0
2022-11-07T21:30:37.452Z,0
2022-11-07T21:38:02.794Z,0
2022-11-07T21:38:43.276Z,0
2022-11-07T21:39:23.731Z,0
2022-11-07T21:40:04.202Z,0
2022-11-07T21:40:44.656Z,0
2022-11-07T21:41:25.143Z,0
2022-11-07T21:42:05.627Z,0
2022-11-07T21:43:26.636Z,0
2022-11-07T21:44:07.125Z,0
2022-11-07T21:44:47.560Z,0
2022-11-07T21:52:12.928Z,0
2022-11-07T21:52:53.349Z,0
2022-11-07T21:53:37.565Z,0
2022-11-07T21:54:14.332Z,0
2022-11-07T21:54:54.827Z,0
2022-11-07T21:55:35.318Z,0
2022-11-07T21:56:15.759Z,0
2022-11-07T21:56:56.280Z,0
2022-11-07T21:57:36.706Z,0
2022-11-07T21:58:17.176Z,0
2022-11-07T22:06:22.862Z,0
2022-11-07T22:07:03.371Z,0
2022-11-07T22:07:43.793Z,0
2022-11-07T22:08:24.270Z,0
2022-11-07T22:09:04.770Z,0
2022-11-07T22:09:45.272Z,0
2022-11-07T22:10:25.737Z,0
2022-11-07T22:11:06.215Z,0
2022-11-07T22:11:46.707Z,0
2022-11-07T22:12:27.175Z,0
2022-11-07T22:19:13.197Z,0
2022-11-07T22:19:53.155Z,0
2022-11-07T22:20:33.627Z,0
2022-11-07T22:21:14.176Z,0
2022-11-07T22:21:54.679Z,0
2022-11-07T22:22:35.155Z,0
2022-11-07T22:23:56.066Z,0
2022-11-07T22:24:36.612Z,0
2022-11-07T22:25:17.039Z,0
2022-11-07T22:25:57.460Z,0
2022-11-07T22:33:22.774Z,0
2022-11-07T22:34:03.292Z,0
2022-11-07T22:34:44.398Z,0
2022-11-07T22:35:24.930Z,0
2022-11-07T22:36:05.377Z,0
2022-11-07T22:36:45.896Z,0
2022-11-07T22:37:26.414Z,0
2022-11-07T22:38:06.912Z,0
2022-11-07T22:38:47.369Z,0
2022-11-07T22:46:12.696Z,0
2022-11-07T22:46:53.197Z,0
2022-11-07T22:47:33.643Z,0
2022-11-07T22:48:14.129Z,0
2022-11-07T22:48:54.648Z,0
2022-11-07T22:49:35.125Z,0
2022-11-07T22:50:15.646Z,0
2022-11-07T22:50:56.104Z,0
2022-11-07T22:51:36.529Z,0
2022-11-07T22:52:17.098Z,0
2022-11-07T22:52:57.532Z,0
2022-11-07T23:00:22.934Z,0
2022-11-07T23:01:03.354Z,0
2022-11-07T23:01:43.965Z,0
2022-11-07T23:02:24.512Z,0
2022-11-07T23:03:04.949Z,0
2022-11-07T23:03:45.390Z,0
2022-11-07T23:04:30.097Z,0
2022-11-07T23:05:06.335Z,0
2022-11-07T23:05:46.855Z,0
2022-11-07T23:06:27.333Z,0
2022-11-07T23:14:33.037Z,0
2022-11-07T23:15:13.450Z,0
2022-11-07T23:15:53.981Z,0
2022-11-07T23:16:34.437Z,0
2022-11-07T23:17:14.895Z,0
2022-11-07T23:17:55.445Z,0
2022-11-07T23:18:35.892Z,0
2022-11-07T23:19:16.381Z,0
2022-11-07T23:19:56.895Z,0
2022-11-07T23:20:37.375Z,0
2022-11-07T23:28:02.672Z,0
2022-11-07T23:28:43.208Z,0
2022-11-07T23:29:23.703Z,0